Enisejsk, Russia
Current Conditions -  °F | °C
As of 5:30 AM on Tuesday 25 Nov 2014 (Local Time) from UNKL Reporting Station
Broken Clouds Broken Clouds  
Wind Chill: -33°   Ceiling: 17000
Heat Index: -15°   Visibility: 4mi
Dew Point: -24°   Wind: 9mph
Humidity: 64%   Direction: 250°WSW
Pressure: 29.94"   Gusts: NA
Location:  58.45°N, 92.15°E
Report Text: UNKL 242230Z 25004MPS 7000 SCT043 BKN170 M26/M31 Q1014 NOSIGRMK QFE735 29////55
Loading
Personal Weather Stations






























Interactive Weather Map New forecast layout! Learn more

10-Day Weather Forecast

Advertisements
Track Severe Weather on mobile